sensor_id;sensor_type;location;lat;lon;timestamp;P1;durP1;ratioP1;P2;durP2;ratioP2
16352;SDS011;8286;51.274;9.542;2022-11-18T00:01:05;8.30;;;3.43;;
16352;SDS011;8286;51.274;9.542;2022-11-18T00:03:32;5.47;;;3.10;;
16352;SDS011;8286;51.274;9.542;2022-11-18T00:05:59;6.60;;;3.13;;
16352;SDS011;8286;51.274;9.542;2022-11-18T00:08:27;4.00;;;2.80;;
16352;SDS011;8286;51.274;9.542;2022-11-18T00:10:53;8.40;;;3.00;;
16352;SDS011;8286;51.274;9.542;2022-11-18T00:13:20;5.30;;;2.87;;
16352;SDS011;8286;51.274;9.542;2022-11-18T00:16:05;7.20;;;3.63;;
16352;SDS011;8286;51.274;9.542;2022-11-18T00:18:32;5.90;;;3.23;;
16352;SDS011;8286;51.274;9.542;2022-11-18T00:21:00;5.30;;;3.53;;
16352;SDS011;8286;51.274;9.542;2022-11-18T00:23:28;5.63;;;4.00;;
16352;SDS011;8286;51.274;9.542;2022-11-18T00:26:00;4.63;;;2.90;;
16352;SDS011;8286;51.274;9.542;2022-11-18T00:28:27;8.70;;;3.90;;
16352;SDS011;8286;51.274;9.542;2022-11-18T00:30:59;6.60;;;3.93;;
16352;SDS011;8286;51.274;9.542;2022-11-18T00:33:26;5.63;;;3.80;;
16352;SDS011;8286;51.274;9.542;2022-11-18T00:35:53;9.40;;;4.20;;
16352;SDS011;8286;51.274;9.542;2022-11-18T00:38:19;5.73;;;3.80;;
16352;SDS011;8286;51.274;9.542;2022-11-18T00:40:47;5.20;;;3.40;;
16352;SDS011;8286;51.274;9.542;2022-11-18T00:43:14;7.27;;;3.37;;
16352;SDS011;8286;51.274;9.542;2022-11-18T00:45:41;6.63;;;3.43;;
16352;SDS011;8286;51.274;9.542;2022-11-18T00:48:08;3.40;;;2.87;;
16352;SDS011;8286;51.274;9.542;2022-11-18T00:50:34;6.57;;;3.10;;
16352;SDS011;8286;51.274;9.542;2022-11-18T00:53:01;3.97;;;3.17;;
16352;SDS011;8286;51.274;9.542;2022-11-18T00:55:27;5.57;;;4.00;;
16352;SDS011;8286;51.274;9.542;2022-11-18T00:57:55;6.63;;;3.40;;
16352;SDS011;8286;51.274;9.542;2022-11-18T01:00:22;7.80;;;3.90;;
16352;SDS011;8286;51.274;9.542;2022-11-18T01:02:48;8.63;;;4.00;;
16352;SDS011;8286;51.274;9.542;2022-11-18T01:05:15;5.33;;;4.10;;
16352;SDS011;8286;51.274;9.542;2022-11-18T01:07:42;8.23;;;3.97;;
16352;SDS011;8286;51.274;9.542;2022-11-18T01:10:08;5.17;;;3.20;;
16352;SDS011;8286;51.274;9.542;2022-11-18T01:12:35;5.77;;;3.37;;
16352;SDS011;8286;51.274;9.542;2022-11-18T01:15:20;8.17;;;3.10;;
16352;SDS011;8286;51.274;9.542;2022-11-18T01:17:47;8.20;;;3.03;;
16352;SDS011;8286;51.274;9.542;2022-11-18T01:20:14;4.60;;;3.23;;
16352;SDS011;8286;51.274;9.542;2022-11-18T01:22:40;4.77;;;3.43;;
16352;SDS011;8286;51.274;9.542;2022-11-18T01:25:07;9.57;;;4.03;;
16352;SDS011;8286;51.274;9.542;2022-11-18T01:27:34;13.17;;;4.47;;
16352;SDS011;8286;51.274;9.542;2022-11-18T01:30:00;7.90;;;4.77;;
16352;SDS011;8286;51.274;9.542;2022-11-18T01:32:28;9.60;;;5.30;;
16352;SDS011;8286;51.274;9.542;2022-11-18T01:34:55;7.03;;;4.80;;
16352;SDS011;8286;51.274;9.542;2022-11-18T01:37:22;8.10;;;5.43;;
16352;SDS011;8286;51.274;9.542;2022-11-18T01:39:48;7.33;;;4.47;;
16352;SDS011;8286;51.274;9.542;2022-11-18T01:42:15;5.67;;;4.17;;
16352;SDS011;8286;51.274;9.542;2022-11-18T01:44:56;6.60;;;3.50;;
16352;SDS011;8286;51.274;9.542;2022-11-18T01:47:24;5.03;;;3.87;;
16352;SDS011;8286;51.274;9.542;2022-11-18T01:49:55;4.37;;;3.80;;
16352;SDS011;8286;51.274;9.542;2022-11-18T01:52:22;6.90;;;3.73;;
16352;SDS011;8286;51.274;9.542;2022-11-18T01:54:49;4.00;;;3.60;;
16352;SDS011;8286;51.274;9.542;2022-11-18T01:57:19;5.00;;;3.70;;
16352;SDS011;8286;51.274;9.542;2022-11-18T01:59:47;8.27;;;4.70;;
16352;SDS011;8286;51.274;9.542;2022-11-18T02:02:15;9.80;;;4.57;;
16352;SDS011;8286;51.274;9.542;2022-11-18T02:04:43;6.40;;;3.80;;
16352;SDS011;8286;51.274;9.542;2022-11-18T02:07:13;7.17;;;4.60;;
16352;SDS011;8286;51.274;9.542;2022-11-18T02:09:40;6.63;;;3.83;;
16352;SDS011;8286;51.274;9.542;2022-11-18T02:12:07;5.50;;;3.83;;
16352;SDS011;8286;51.274;9.542;2022-11-18T02:14:35;9.00;;;4.00;;
16352;SDS011;8286;51.274;9.542;2022-11-18T02:17:03;7.00;;;3.90;;
16352;SDS011;8286;51.274;9.542;2022-11-18T02:19:40;8.90;;;5.17;;
16352;SDS011;8286;51.274;9.542;2022-11-18T02:22:40;10.63;;;6.00;;
16352;SDS011;8286;51.274;9.542;2022-11-18T02:25:17;7.53;;;5.17;;
16352;SDS011;8286;51.274;9.542;2022-11-18T02:27:54;7.27;;;4.40;;
16352;SDS011;8286;51.274;9.542;2022-11-18T02:30:29;6.40;;;4.60;;
16352;SDS011;8286;51.274;9.542;2022-11-18T02:32:59;4.47;;;3.97;;
16352;SDS011;8286;51.274;9.542;2022-11-18T02:35:30;8.07;;;4.13;;
16352;SDS011;8286;51.274;9.542;2022-11-18T02:38:01;5.87;;;4.17;;
16352;SDS011;8286;51.274;9.542;2022-11-18T02:40:30;7.53;;;4.13;;
16352;SDS011;8286;51.274;9.542;2022-11-18T02:43:00;5.67;;;3.43;;
16352;SDS011;8286;51.274;9.542;2022-11-18T02:45:30;10.93;;;4.20;;
16352;SDS011;8286;51.274;9.542;2022-11-18T02:47:58;6.97;;;4.10;;
16352;SDS011;8286;51.274;9.542;2022-11-18T02:50:28;6.23;;;3.63;;
16352;SDS011;8286;51.274;9.542;2022-11-18T02:52:56;4.57;;;3.33;;
16352;SDS011;8286;51.274;9.542;2022-11-18T02:55:25;9.20;;;3.43;;
16352;SDS011;8286;51.274;9.542;2022-11-18T02:57:54;7.50;;;3.50;;
16352;SDS011;8286;51.274;9.542;2022-11-18T03:00:21;7.43;;;3.40;;
16352;SDS011;8286;51.274;9.542;2022-11-18T03:02:49;6.17;;;3.60;;
16352;SDS011;8286;51.274;9.542;2022-11-18T03:05:17;6.90;;;4.57;;
16352;SDS011;8286;51.274;9.542;2022-11-18T03:07:47;5.20;;;4.20;;
16352;SDS011;8286;51.274;9.542;2022-11-18T03:10:17;9.60;;;4.50;;
16352;SDS011;8286;51.274;9.542;2022-11-18T03:12:45;6.80;;;4.77;;
16352;SDS011;8286;51.274;9.542;2022-11-18T03:15:17;8.63;;;5.03;;
16352;SDS011;8286;51.274;9.542;2022-11-18T03:17:49;5.93;;;4.63;;
16352;SDS011;8286;51.274;9.542;2022-11-18T03:20:21;7.03;;;4.73;;
16352;SDS011;8286;51.274;9.542;2022-11-18T03:22:52;7.80;;;5.43;;
16352;SDS011;8286;51.274;9.542;2022-11-18T03:25:21;8.67;;;3.90;;
16352;SDS011;8286;51.274;9.542;2022-11-18T03:27:52;6.30;;;3.10;;
16352;SDS011;8286;51.274;9.542;2022-11-18T03:30:22;4.67;;;3.43;;
16352;SDS011;8286;51.274;9.542;2022-11-18T03:32:50;4.03;;;2.97;;
16352;SDS011;8286;51.274;9.542;2022-11-18T03:35:21;6.07;;;3.07;;
16352;SDS011;8286;51.274;9.542;2022-11-18T03:37:49;7.57;;;3.50;;
16352;SDS011;8286;51.274;9.542;2022-11-18T03:40:21;10.17;;;3.10;;
16352;SDS011;8286;51.274;9.542;2022-11-18T03:42:50;3.77;;;2.80;;
16352;SDS011;8286;51.274;9.542;2022-11-18T03:45:19;8.57;;;3.53;;
16352;SDS011;8286;51.274;9.542;2022-11-18T03:47:50;6.87;;;2.80;;
16352;SDS011;8286;51.274;9.542;2022-11-18T03:50:20;6.77;;;2.70;;
16352;SDS011;8286;51.274;9.542;2022-11-18T03:52:48;4.10;;;2.60;;
16352;SDS011;8286;51.274;9.542;2022-11-18T03:55:17;4.17;;;3.00;;
16352;SDS011;8286;51.274;9.542;2022-11-18T03:57:45;6.17;;;3.17;;
16352;SDS011;8286;51.274;9.542;2022-11-18T04:00:15;4.20;;;2.70;;
16352;SDS011;8286;51.274;9.542;2022-11-18T04:02:44;3.60;;;2.87;;
16352;SDS011;8286;51.274;9.542;2022-11-18T04:05:13;6.13;;;3.03;;
16352;SDS011;8286;51.274;9.542;2022-11-18T04:07:48;3.73;;;2.80;;
16352;SDS011;8286;51.274;9.542;2022-11-18T04:10:19;3.93;;;2.60;;
16352;SDS011;8286;51.274;9.542;2022-11-18T04:12:48;3.83;;;2.80;;
16352;SDS011;8286;51.274;9.542;2022-11-18T04:15:19;8.07;;;3.33;;
16352;SDS011;8286;51.274;9.542;2022-11-18T04:17:45;8.13;;;3.00;;
16352;SDS011;8286;51.274;9.542;2022-11-18T04:20:12;5.10;;;2.90;;
16352;SDS011;8286;51.274;9.542;2022-11-18T04:22:40;6.13;;;3.10;;
16352;SDS011;8286;51.274;9.542;2022-11-18T04:25:08;6.90;;;3.20;;
16352;SDS011;8286;51.274;9.542;2022-11-18T04:27:34;5.00;;;3.00;;
16352;SDS011;8286;51.274;9.542;2022-11-18T04:30:01;5.00;;;2.90;;
16352;SDS011;8286;51.274;9.542;2022-11-18T04:32:28;4.67;;;2.63;;
16352;SDS011;8286;51.274;9.542;2022-11-18T04:34:54;5.10;;;3.00;;
16352;SDS011;8286;51.274;9.542;2022-11-18T04:37:21;4.00;;;3.17;;
16352;SDS011;8286;51.274;9.542;2022-11-18T04:39:48;6.63;;;2.87;;
16352;SDS011;8286;51.274;9.542;2022-11-18T04:42:16;4.27;;;2.73;;
16352;SDS011;8286;51.274;9.542;2022-11-18T04:44:43;5.80;;;2.67;;
16352;SDS011;8286;51.274;9.542;2022-11-18T04:47:10;3.23;;;2.70;;
16352;SDS011;8286;51.274;9.542;2022-11-18T04:49:36;4.00;;;2.80;;
16352;SDS011;8286;51.274;9.542;2022-11-18T04:52:03;3.03;;;2.73;;
16352;SDS011;8286;51.274;9.542;2022-11-18T04:54:30;3.00;;;2.70;;
16352;SDS011;8286;51.274;9.542;2022-11-18T04:56:57;6.73;;;4.23;;
16352;SDS011;8286;51.274;9.542;2022-11-18T04:59:25;7.30;;;4.37;;
16352;SDS011;8286;51.274;9.542;2022-11-18T05:01:53;4.83;;;3.03;;
16352;SDS011;8286;51.274;9.542;2022-11-18T05:04:22;8.50;;;4.13;;
16352;SDS011;8286;51.274;9.542;2022-11-18T05:06:49;5.10;;;3.80;;
16352;SDS011;8286;51.274;9.542;2022-11-18T05:09:16;4.80;;;3.80;;
16352;SDS011;8286;51.274;9.542;2022-11-18T05:11:43;9.67;;;4.10;;
16352;SDS011;8286;51.274;9.542;2022-11-18T05:14:37;4.43;;;2.70;;
16352;SDS011;8286;51.274;9.542;2022-11-18T05:17:04;4.10;;;3.50;;
16352;SDS011;8286;51.274;9.542;2022-11-18T05:19:32;6.70;;;3.80;;
16352;SDS011;8286;51.274;9.542;2022-11-18T05:21:59;3.87;;;3.03;;
16352;SDS011;8286;51.274;9.542;2022-11-18T05:24:25;7.17;;;3.77;;
16352;SDS011;8286;51.274;9.542;2022-11-18T05:26:52;4.67;;;3.43;;
16352;SDS011;8286;51.274;9.542;2022-11-18T05:29:20;6.37;;;3.63;;
16352;SDS011;8286;51.274;9.542;2022-11-18T05:31:49;6.53;;;3.73;;
16352;SDS011;8286;51.274;9.542;2022-11-18T05:34:17;7.20;;;3.70;;
16352;SDS011;8286;51.274;9.542;2022-11-18T05:36:44;5.50;;;3.30;;
16352;SDS011;8286;51.274;9.542;2022-11-18T05:39:11;5.90;;;3.50;;
16352;SDS011;8286;51.274;9.542;2022-11-18T05:41:37;5.30;;;3.37;;
16352;SDS011;8286;51.274;9.542;2022-11-18T05:44:22;6.17;;;3.13;;
16352;SDS011;8286;51.274;9.542;2022-11-18T05:46:50;4.67;;;3.37;;
16352;SDS011;8286;51.274;9.542;2022-11-18T05:49:16;4.53;;;3.57;;
16352;SDS011;8286;51.274;9.542;2022-11-18T05:51:43;4.80;;;3.47;;
16352;SDS011;8286;51.274;9.542;2022-11-18T05:54:09;4.90;;;3.60;;
16352;SDS011;8286;51.274;9.542;2022-11-18T05:56:37;5.73;;;3.30;;
16352;SDS011;8286;51.274;9.542;2022-11-18T05:59:05;5.07;;;3.20;;
16352;SDS011;8286;51.274;9.542;2022-11-18T06:01:35;5.13;;;3.70;;
16352;SDS011;8286;51.274;9.542;2022-11-18T06:04:06;4.27;;;3.13;;
16352;SDS011;8286;51.274;9.542;2022-11-18T06:06:35;5.30;;;3.90;;
16352;SDS011;8286;51.274;9.542;2022-11-18T06:09:03;8.57;;;3.90;;
16352;SDS011;8286;51.274;9.542;2022-11-18T06:11:31;14.93;;;5.50;;
16352;SDS011;8286;51.274;9.542;2022-11-18T06:14:02;11.87;;;5.10;;
16352;SDS011;8286;51.274;9.542;2022-11-18T06:16:30;7.70;;;3.90;;
16352;SDS011;8286;51.274;9.542;2022-11-18T06:18:59;8.60;;;4.57;;
16352;SDS011;8286;51.274;9.542;2022-11-18T06:21:28;8.50;;;4.47;;
16352;SDS011;8286;51.274;9.542;2022-11-18T06:23:55;10.53;;;4.80;;
16352;SDS011;8286;51.274;9.542;2022-11-18T06:26:22;9.23;;;4.20;;
16352;SDS011;8286;51.274;9.542;2022-11-18T06:28:48;6.10;;;4.37;;
16352;SDS011;8286;51.274;9.542;2022-11-18T06:31:15;7.73;;;4.13;;
16352;SDS011;8286;51.274;9.542;2022-11-18T06:33:41;6.60;;;4.47;;
16352;SDS011;8286;51.274;9.542;2022-11-18T06:36:08;8.63;;;4.10;;
16352;SDS011;8286;51.274;9.542;2022-11-18T06:38:36;7.23;;;4.17;;
16352;SDS011;8286;51.274;9.542;2022-11-18T06:41:03;7.17;;;4.33;;
16352;SDS011;8286;51.274;9.542;2022-11-18T06:43:31;9.00;;;4.80;;
16352;SDS011;8286;51.274;9.542;2022-11-18T06:46:06;6.80;;;4.80;;
16352;SDS011;8286;51.274;9.542;2022-11-18T06:48:52;7.90;;;4.23;;
16352;SDS011;8286;51.274;9.542;2022-11-18T06:51:19;5.77;;;3.97;;
16352;SDS011;8286;51.274;9.542;2022-11-18T06:53:47;6.73;;;4.73;;
16352;SDS011;8286;51.274;9.542;2022-11-18T06:56:14;10.77;;;4.53;;
16352;SDS011;8286;51.274;9.542;2022-11-18T06:58:42;7.77;;;4.20;;
16352;SDS011;8286;51.274;9.542;2022-11-18T07:01:09;6.93;;;4.10;;
16352;SDS011;8286;51.274;9.542;2022-11-18T07:03:37;7.10;;;5.10;;
16352;SDS011;8286;51.274;9.542;2022-11-18T07:06:03;7.33;;;5.23;;
16352;SDS011;8286;51.274;9.542;2022-11-18T07:08:30;6.47;;;4.93;;
16352;SDS011;8286;51.274;9.542;2022-11-18T07:10:58;11.03;;;5.73;;
16352;SDS011;8286;51.274;9.542;2022-11-18T07:13:25;8.97;;;5.10;;
16352;SDS011;8286;51.274;9.542;2022-11-18T07:15:52;8.40;;;6.03;;
16352;SDS011;8286;51.274;9.542;2022-11-18T07:18:18;10.50;;;4.57;;
16352;SDS011;8286;51.274;9.542;2022-11-18T07:20:45;7.40;;;4.87;;
16352;SDS011;8286;51.274;9.542;2022-11-18T07:23:12;7.10;;;5.37;;
16352;SDS011;8286;51.274;9.542;2022-11-18T07:25:38;6.93;;;5.10;;
16352;SDS011;8286;51.274;9.542;2022-11-18T07:28:06;9.93;;;5.40;;
16352;SDS011;8286;51.274;9.542;2022-11-18T07:30:33;12.07;;;5.13;;
16352;SDS011;8286;51.274;9.542;2022-11-18T07:32:59;9.10;;;5.20;;
16352;SDS011;8286;51.274;9.542;2022-11-18T07:35:26;10.90;;;5.53;;
16352;SDS011;8286;51.274;9.542;2022-11-18T07:37:52;9.70;;;5.23;;
16352;SDS011;8286;51.274;9.542;2022-11-18T07:40:19;9.83;;;5.67;;
16352;SDS011;8286;51.274;9.542;2022-11-18T07:42:45;13.33;;;6.47;;
16352;SDS011;8286;51.274;9.542;2022-11-18T07:45:14;9.40;;;5.50;;
16352;SDS011;8286;51.274;9.542;2022-11-18T07:47:40;9.20;;;5.90;;
16352;SDS011;8286;51.274;9.542;2022-11-18T07:50:07;9.10;;;5.67;;
16352;SDS011;8286;51.274;9.542;2022-11-18T07:52:34;11.53;;;5.77;;
16352;SDS011;8286;51.274;9.542;2022-11-18T07:55:00;9.57;;;5.00;;
16352;SDS011;8286;51.274;9.542;2022-11-18T07:57:27;9.50;;;5.57;;
16352;SDS011;8286;51.274;9.542;2022-11-18T07:59:53;11.43;;;6.40;;
16352;SDS011;8286;51.274;9.542;2022-11-18T08:02:21;7.90;;;6.03;;
16352;SDS011;8286;51.274;9.542;2022-11-18T08:04:48;12.97;;;6.77;;
16352;SDS011;8286;51.274;9.542;2022-11-18T08:07:14;11.97;;;5.60;;
16352;SDS011;8286;51.274;9.542;2022-11-18T08:09:41;10.53;;;6.70;;
16352;SDS011;8286;51.274;9.542;2022-11-18T08:12:08;9.30;;;5.53;;
16352;SDS011;8286;51.274;9.542;2022-11-18T08:14:34;9.60;;;6.10;;
16352;SDS011;8286;51.274;9.542;2022-11-18T08:17:01;10.70;;;6.37;;
16352;SDS011;8286;51.274;9.542;2022-11-18T08:19:29;12.23;;;7.23;;
16352;SDS011;8286;51.274;9.542;2022-11-18T08:21:55;14.10;;;7.33;;
16352;SDS011;8286;51.274;9.542;2022-11-18T08:24:22;10.13;;;6.73;;
16352;SDS011;8286;51.274;9.542;2022-11-18T08:26:49;13.03;;;7.40;;
16352;SDS011;8286;51.274;9.542;2022-11-18T08:29:15;10.93;;;6.80;;
16352;SDS011;8286;51.274;9.542;2022-11-18T08:31:42;9.60;;;6.07;;
16352;SDS011;8286;51.274;9.542;2022-11-18T08:34:08;11.43;;;6.37;;
16352;SDS011;8286;51.274;9.542;2022-11-18T08:36:38;9.00;;;6.07;;
16352;SDS011;8286;51.274;9.542;2022-11-18T08:39:05;9.07;;;6.13;;
16352;SDS011;8286;51.274;9.542;2022-11-18T08:41:33;11.33;;;6.93;;
16352;SDS011;8286;51.274;9.542;2022-11-18T08:44:01;13.90;;;6.67;;
16352;SDS011;8286;51.274;9.542;2022-11-18T08:46:29;10.43;;;6.10;;
16352;SDS011;8286;51.274;9.542;2022-11-18T08:48:56;9.27;;;6.07;;
16352;SDS011;8286;51.274;9.542;2022-11-18T08:51:22;11.50;;;7.40;;
16352;SDS011;8286;51.274;9.542;2022-11-18T08:53:50;11.23;;;7.23;;
16352;SDS011;8286;51.274;9.542;2022-11-18T08:56:18;14.87;;;7.53;;
16352;SDS011;8286;51.274;9.542;2022-11-18T08:58:45;12.77;;;7.87;;
16352;SDS011;8286;51.274;9.542;2022-11-18T09:01:12;15.23;;;8.50;;
16352;SDS011;8286;51.274;9.542;2022-11-18T09:03:39;10.63;;;7.20;;
16352;SDS011;8286;51.274;9.542;2022-11-18T09:06:06;13.93;;;7.57;;
16352;SDS011;8286;51.274;9.542;2022-11-18T09:08:33;11.90;;;7.00;;
16352;SDS011;8286;51.274;9.542;2022-11-18T09:11:04;14.57;;;7.73;;
16352;SDS011;8286;51.274;9.542;2022-11-18T09:13:32;12.93;;;7.60;;
16352;SDS011;8286;51.274;9.542;2022-11-18T09:15:58;15.53;;;8.30;;
16352;SDS011;8286;51.274;9.542;2022-11-18T09:18:25;14.57;;;8.47;;
16352;SDS011;8286;51.274;9.542;2022-11-18T09:20:52;17.33;;;8.67;;
16352;SDS011;8286;51.274;9.542;2022-11-18T09:23:20;16.17;;;8.90;;
16352;SDS011;8286;51.274;9.542;2022-11-18T09:25:47;14.73;;;9.07;;
16352;SDS011;8286;51.274;9.542;2022-11-18T09:28:15;14.23;;;8.27;;
16352;SDS011;8286;51.274;9.542;2022-11-18T09:30:41;18.83;;;9.80;;
16352;SDS011;8286;51.274;9.542;2022-11-18T09:33:08;20.57;;;8.70;;
16352;SDS011;8286;51.274;9.542;2022-11-18T09:35:34;20.17;;;10.20;;
16352;SDS011;8286;51.274;9.542;2022-11-18T09:38:01;20.00;;;9.53;;
16352;SDS011;8286;51.274;9.542;2022-11-18T09:40:28;24.17;;;10.87;;
16352;SDS011;8286;51.274;9.542;2022-11-18T09:42:56;22.70;;;11.43;;
16352;SDS011;8286;51.274;9.542;2022-11-18T09:45:28;28.27;;;11.00;;
16352;SDS011;8286;51.274;9.542;2022-11-18T09:48:01;23.17;;;10.50;;
16352;SDS011;8286;51.274;9.542;2022-11-18T09:50:38;24.27;;;10.90;;
16352;SDS011;8286;51.274;9.542;2022-11-18T09:53:07;23.60;;;11.70;;
16352;SDS011;8286;51.274;9.542;2022-11-18T09:55:37;23.77;;;11.93;;
16352;SDS011;8286;51.274;9.542;2022-11-18T09:58:05;18.83;;;10.13;;
16352;SDS011;8286;51.274;9.542;2022-11-18T10:00:33;21.90;;;10.50;;
16352;SDS011;8286;51.274;9.542;2022-11-18T10:03:00;24.10;;;11.40;;
16352;SDS011;8286;51.274;9.542;2022-11-18T10:05:29;31.67;;;12.47;;
16352;SDS011;8286;51.274;9.542;2022-11-18T10:10:43;29.00;;;12.97;;
16352;SDS011;8286;51.274;9.542;2022-11-18T10:13:16;25.77;;;13.03;;
16352;SDS011;8286;51.274;9.542;2022-11-18T10:15:52;24.73;;;12.50;;
16352;SDS011;8286;51.274;9.542;2022-11-18T10:18:24;30.17;;;12.87;;
16352;SDS011;8286;51.274;9.542;2022-11-18T10:20:54;27.73;;;13.40;;
16352;SDS011;8286;51.274;9.542;2022-11-18T10:23:26;23.53;;;12.20;;
16352;SDS011;8286;51.274;9.542;2022-11-18T10:25:54;20.90;;;11.70;;
16352;SDS011;8286;51.274;9.542;2022-11-18T10:28:22;21.03;;;11.10;;
16352;SDS011;8286;51.274;9.542;2022-11-18T10:30:51;20.00;;;10.77;;
16352;SDS011;8286;51.274;9.542;2022-11-18T10:33:25;18.97;;;11.13;;
16352;SDS011;8286;51.274;9.542;2022-11-18T10:36:17;21.93;;;9.80;;
16352;SDS011;8286;51.274;9.542;2022-11-18T10:38:47;22.20;;;10.10;;
16352;SDS011;8286;51.274;9.542;2022-11-18T10:41:14;18.00;;;10.30;;
16352;SDS011;8286;51.274;9.542;2022-11-18T10:43:43;18.47;;;10.80;;
16352;SDS011;8286;51.274;9.542;2022-11-18T10:46:16;22.20;;;10.10;;
16352;SDS011;8286;51.274;9.542;2022-11-18T10:48:44;20.80;;;10.80;;
16352;SDS011;8286;51.274;9.542;2022-11-18T10:51:21;17.97;;;9.60;;
16352;SDS011;8286;51.274;9.542;2022-11-18T10:53:49;21.07;;;9.10;;
16352;SDS011;8286;51.274;9.542;2022-11-18T10:56:15;16.77;;;8.97;;
16352;SDS011;8286;51.274;9.542;2022-11-18T10:58:43;14.03;;;8.97;;
16352;SDS011;8286;51.274;9.542;2022-11-18T11:01:13;15.07;;;8.43;;
16352;SDS011;8286;51.274;9.542;2022-11-18T11:03:55;14.73;;;8.50;;
16352;SDS011;8286;51.274;9.542;2022-11-18T11:06:28;16.13;;;8.80;;
16352;SDS011;8286;51.274;9.542;2022-11-18T11:08:58;16.63;;;9.20;;
16352;SDS011;8286;51.274;9.542;2022-11-18T11:11:30;14.20;;;7.73;;
16352;SDS011;8286;51.274;9.542;2022-11-18T11:14:03;13.40;;;8.90;;
16352;SDS011;8286;51.274;9.542;2022-11-18T11:16:35;13.77;;;8.40;;
16352;SDS011;8286;51.274;9.542;2022-11-18T11:19:08;10.73;;;7.67;;
16352;SDS011;8286;51.274;9.542;2022-11-18T11:21:35;13.67;;;7.60;;
16352;SDS011;8286;51.274;9.542;2022-11-18T11:24:04;12.60;;;7.70;;
16352;SDS011;8286;51.274;9.542;2022-11-18T11:26:37;9.33;;;5.70;;
16352;SDS011;8286;51.274;9.542;2022-11-18T11:29:11;9.37;;;6.00;;
16352;SDS011;8286;51.274;9.542;2022-11-18T11:31:47;5.93;;;4.70;;
16352;SDS011;8286;51.274;9.542;2022-11-18T11:34:19;6.63;;;4.70;;
16352;SDS011;8286;51.274;9.542;2022-11-18T11:36:50;7.60;;;5.13;;
16352;SDS011;8286;51.274;9.542;2022-11-18T11:42:23;6.90;;;5.00;;
16352;SDS011;8286;51.274;9.542;2022-11-18T11:44:59;8.00;;;5.20;;
16352;SDS011;8286;51.274;9.542;2022-11-18T11:47:34;7.73;;;5.17;;
16352;SDS011;8286;51.274;9.542;2022-11-18T11:50:16;7.57;;;5.43;;
16352;SDS011;8286;51.274;9.542;2022-11-18T11:52:46;10.20;;;5.90;;
16352;SDS011;8286;51.274;9.542;2022-11-18T11:55:21;9.07;;;5.20;;
16352;SDS011;8286;51.274;9.542;2022-11-18T11:57:58;10.63;;;5.30;;
16352;SDS011;8286;51.274;9.542;2022-11-18T12:00:32;7.97;;;5.10;;
16352;SDS011;8286;51.274;9.542;2022-11-18T12:03:07;11.03;;;5.30;;
16352;SDS011;8286;51.274;9.542;2022-11-18T12:05:40;8.40;;;4.97;;
16352;SDS011;8286;51.274;9.542;2022-11-18T12:08:08;8.40;;;4.60;;
16352;SDS011;8286;51.274;9.542;2022-11-18T12:10:40;9.63;;;5.00;;
16352;SDS011;8286;51.274;9.542;2022-11-18T12:13:18;7.50;;;4.67;;
16352;SDS011;8286;51.274;9.542;2022-11-18T12:15:52;7.77;;;5.33;;
16352;SDS011;8286;51.274;9.542;2022-11-18T12:18:28;7.17;;;4.60;;
16352;SDS011;8286;51.274;9.542;2022-11-18T12:20:58;9.73;;;5.30;;
16352;SDS011;8286;51.274;9.542;2022-11-18T12:23:25;6.33;;;4.00;;
16352;SDS011;8286;51.274;9.542;2022-11-18T12:25:54;10.70;;;5.27;;
16352;SDS011;8286;51.274;9.542;2022-11-18T12:28:25;7.53;;;4.80;;
16352;SDS011;8286;51.274;9.542;2022-11-18T12:40:04;8.47;;;4.63;;
16352;SDS011;8286;51.274;9.542;2022-11-18T12:42:35;6.87;;;4.53;;
16352;SDS011;8286;51.274;9.542;2022-11-18T12:48:34;6.90;;;4.37;;
16352;SDS011;8286;51.274;9.542;2022-11-18T12:51:35;7.37;;;4.83;;
16352;SDS011;8286;51.274;9.542;2022-11-18T12:54:14;6.87;;;4.73;;
16352;SDS011;8286;51.274;9.542;2022-11-18T12:56:47;6.87;;;4.10;;
16352;SDS011;8286;51.274;9.542;2022-11-18T12:59:14;6.30;;;4.40;;
16352;SDS011;8286;51.274;9.542;2022-11-18T13:01:41;7.90;;;4.70;;
16352;SDS011;8286;51.274;9.542;2022-11-18T13:04:08;7.30;;;5.23;;
16352;SDS011;8286;51.274;9.542;2022-11-18T13:06:40;7.13;;;4.60;;
16352;SDS011;8286;51.274;9.542;2022-11-18T13:09:11;5.07;;;3.40;;
16352;SDS011;8286;51.274;9.542;2022-11-18T13:11:42;6.67;;;3.83;;
16352;SDS011;8286;51.274;9.542;2022-11-18T13:14:13;5.43;;;3.60;;
16352;SDS011;8286;51.274;9.542;2022-11-18T13:16:59;4.60;;;3.37;;
16352;SDS011;8286;51.274;9.542;2022-11-18T13:19:52;5.13;;;3.87;;
16352;SDS011;8286;51.274;9.542;2022-11-18T13:22:22;4.87;;;4.30;;
16352;SDS011;8286;51.274;9.542;2022-11-18T13:25:19;7.03;;;4.90;;
16352;SDS011;8286;51.274;9.542;2022-11-18T13:27:48;7.57;;;4.53;;
16352;SDS011;8286;51.274;9.542;2022-11-18T13:30:17;8.13;;;4.57;;
16352;SDS011;8286;51.274;9.542;2022-11-18T13:32:44;5.73;;;4.23;;
16352;SDS011;8286;51.274;9.542;2022-11-18T13:35:12;7.07;;;4.50;;
16352;SDS011;8286;51.274;9.542;2022-11-18T13:37:48;6.23;;;4.30;;
16352;SDS011;8286;51.274;9.542;2022-11-18T13:40:20;8.03;;;5.30;;
16352;SDS011;8286;51.274;9.542;2022-11-18T13:42:49;5.97;;;4.53;;
16352;SDS011;8286;51.274;9.542;2022-11-18T13:45:15;7.63;;;4.87;;
16352;SDS011;8286;51.274;9.542;2022-11-18T13:47:42;6.97;;;4.90;;
16352;SDS011;8286;51.274;9.542;2022-11-18T13:50:13;7.43;;;4.67;;
16352;SDS011;8286;51.274;9.542;2022-11-18T13:52:48;7.13;;;4.97;;
16352;SDS011;8286;51.274;9.542;2022-11-18T13:55:19;7.77;;;5.13;;
16352;SDS011;8286;51.274;9.542;2022-11-18T13:57:47;9.33;;;6.53;;
16352;SDS011;8286;51.274;9.542;2022-11-18T14:00:19;6.33;;;4.43;;
16352;SDS011;8286;51.274;9.542;2022-11-18T14:02:52;9.60;;;6.20;;
16352;SDS011;8286;51.274;9.542;2022-11-18T14:05:20;6.87;;;4.00;;
16352;SDS011;8286;51.274;9.542;2022-11-18T14:08:00;10.53;;;5.10;;
16352;SDS011;8286;51.274;9.542;2022-11-18T14:10:29;6.80;;;4.80;;
16352;SDS011;8286;51.274;9.542;2022-11-18T14:13:00;5.87;;;4.43;;
16352;SDS011;8286;51.274;9.542;2022-11-18T14:15:32;4.70;;;4.07;;
16352;SDS011;8286;51.274;9.542;2022-11-18T14:18:01;5.40;;;4.13;;
16352;SDS011;8286;51.274;9.542;2022-11-18T14:20:28;4.50;;;3.43;;
16352;SDS011;8286;51.274;9.542;2022-11-18T14:22:56;5.47;;;4.20;;
16352;SDS011;8286;51.274;9.542;2022-11-18T14:25:27;6.77;;;4.63;;
16352;SDS011;8286;51.274;9.542;2022-11-18T14:27:55;7.60;;;4.13;;
16352;SDS011;8286;51.274;9.542;2022-11-18T14:30:26;6.93;;;4.37;;
16352;SDS011;8286;51.274;9.542;2022-11-18T14:35:52;6.03;;;3.63;;
16352;SDS011;8286;51.274;9.542;2022-11-18T14:38:21;5.80;;;3.57;;
16352;SDS011;8286;51.274;9.542;2022-11-18T14:40:55;6.07;;;3.50;;
16352;SDS011;8286;51.274;9.542;2022-11-18T14:43:24;5.80;;;4.10;;
16352;SDS011;8286;51.274;9.542;2022-11-18T14:45:51;9.27;;;4.77;;
16352;SDS011;8286;51.274;9.542;2022-11-18T14:48:20;9.00;;;5.67;;
16352;SDS011;8286;51.274;9.542;2022-11-18T14:50:47;7.93;;;5.53;;
16352;SDS011;8286;51.274;9.542;2022-11-18T14:53:14;6.23;;;4.40;;
16352;SDS011;8286;51.274;9.542;2022-11-18T14:55:40;6.97;;;3.77;;
16352;SDS011;8286;51.274;9.542;2022-11-18T14:58:10;7.20;;;4.90;;
16352;SDS011;8286;51.274;9.542;2022-11-18T15:00:39;6.40;;;4.60;;
16352;SDS011;8286;51.274;9.542;2022-11-18T15:03:06;5.10;;;4.37;;
16352;SDS011;8286;51.274;9.542;2022-11-18T15:05:33;5.87;;;3.80;;
16352;SDS011;8286;51.274;9.542;2022-11-18T15:07:59;4.10;;;3.63;;
16352;SDS011;8286;51.274;9.542;2022-11-18T15:10:26;4.23;;;3.50;;
16352;SDS011;8286;51.274;9.542;2022-11-18T15:12:53;5.13;;;3.50;;
16352;SDS011;8286;51.274;9.542;2022-11-18T15:15:21;5.20;;;3.27;;
16352;SDS011;8286;51.274;9.542;2022-11-18T15:17:47;5.10;;;3.23;;
16352;SDS011;8286;51.274;9.542;2022-11-18T15:20:15;3.53;;;3.13;;
16352;SDS011;8286;51.274;9.542;2022-11-18T15:22:43;4.43;;;3.37;;
16352;SDS011;8286;51.274;9.542;2022-11-18T15:25:09;7.47;;;3.33;;
16352;SDS011;8286;51.274;9.542;2022-11-18T15:27:36;3.30;;;2.83;;
16352;SDS011;8286;51.274;9.542;2022-11-18T15:30:03;6.93;;;3.40;;
16352;SDS011;8286;51.274;9.542;2022-11-18T15:32:32;3.90;;;2.73;;